createdAt,value
2023-07-10T00:02:21.026Z,18.36
2023-07-10T00:04:47.815Z,18.34
2023-07-10T00:07:14.626Z,18.29
2023-07-10T00:09:41.746Z,18.30
2023-07-10T00:12:13.287Z,18.28
2023-07-10T00:14:40.232Z,18.20
2023-07-10T00:17:10.451Z,18.24
2023-07-10T00:19:38.633Z,18.15
2023-07-10T00:22:05.964Z,18.14
2023-07-10T00:24:32.801Z,18.11
2023-07-10T00:26:59.599Z,18.08
2023-07-10T00:29:32.685Z,18.03
2023-07-10T00:31:59.974Z,17.98
2023-07-10T00:34:27.201Z,18.06
2023-07-10T00:36:55.552Z,18.08
2023-07-10T00:39:25.258Z,18.08
2023-07-10T00:41:57.349Z,18.21
2023-07-10T00:44:29.702Z,18.22
2023-07-10T00:47:01.249Z,18.16
2023-07-10T00:49:37.760Z,18.16
2023-07-10T00:52:14.690Z,18.10
2023-07-10T00:54:45.481Z,18.07
2023-07-10T00:57:16.163Z,17.97
2023-07-10T00:59:43.659Z,17.94
2023-07-10T01:02:22.885Z,17.90
2023-07-10T01:04:57.115Z,17.91
2023-07-10T01:07:27.662Z,17.91
2023-07-10T01:09:58.326Z,17.95
2023-07-10T01:12:27.379Z,17.93
2023-07-10T01:14:54.184Z,17.95
2023-07-10T01:17:21.219Z,17.91
2023-07-10T01:19:49.582Z,17.83
2023-07-10T01:22:17.758Z,17.84
2023-07-10T01:24:44.606Z,17.78
2023-07-10T01:27:14.215Z,17.80
2023-07-10T01:29:45.068Z,17.84
2023-07-10T01:32:15.278Z,17.83
2023-07-10T01:34:48.735Z,17.81
2023-07-10T01:37:17.020Z,17.78
2023-07-10T01:39:46.335Z,17.81
2023-07-10T01:42:13.602Z,17.77
2023-07-10T01:44:42.965Z,17.76
2023-07-10T01:47:11.659Z,17.78
2023-07-10T01:49:45.172Z,17.79
2023-07-10T01:52:14.399Z,17.66
2023-07-10T01:54:43.077Z,17.64
2023-07-10T01:57:12.516Z,17.59
2023-07-10T01:59:39.659Z,17.51
2023-07-10T02:02:07.456Z,17.48
2023-07-10T02:04:35.281Z,17.37
2023-07-10T02:07:02.282Z,17.33
2023-07-10T02:09:30.896Z,17.31
2023-07-10T02:11:59.636Z,17.24
2023-07-10T02:14:26.619Z,17.32
2023-07-10T02:16:53.582Z,17.28
2023-07-10T02:19:20.799Z,17.26
2023-07-10T02:21:47.721Z,17.18
2023-07-10T02:24:14.723Z,17.17
2023-07-10T02:26:42.095Z,17.19
2023-07-10T02:29:10.334Z,17.19
2023-07-10T02:31:37.430Z,17.16
2023-07-10T02:34:04.414Z,17.15
2023-07-10T02:36:31.324Z,17.13
2023-07-10T02:38:58.584Z,17.09
2023-07-10T02:41:25.791Z,17.00
2023-07-10T02:43:52.636Z,17.00
2023-07-10T02:46:20.906Z,16.97
2023-07-10T02:48:47.806Z,16.94
2023-07-10T02:51:14.844Z,16.97
2023-07-10T02:53:43.301Z,16.99
2023-07-10T02:56:10.159Z,16.93
2023-07-10T02:58:37.173Z,16.91
2023-07-10T03:01:04.635Z,16.91
2023-07-10T03:03:32.865Z,16.89
2023-07-10T03:06:02.380Z,16.86
2023-07-10T03:08:30.619Z,16.84
2023-07-10T03:11:03.941Z,16.76
2023-07-10T03:13:31.024Z,16.77
2023-07-10T03:16:00.575Z,16.81
2023-07-10T03:18:27.842Z,16.88
2023-07-10T03:20:56.036Z,16.89
2023-07-10T03:23:23.058Z,16.96
2023-07-10T03:25:50.211Z,17.01
2023-07-10T03:28:17.276Z,17.14
2023-07-10T03:30:44.377Z,17.28
2023-07-10T03:33:13.694Z,17.43
2023-07-10T03:35:40.882Z,17.43
2023-07-10T03:38:10.094Z,17.47
2023-07-10T03:40:37.230Z,17.57
2023-07-10T03:43:04.464Z,17.58
2023-07-10T03:45:31.811Z,17.54
2023-07-10T03:47:58.898Z,17.56
2023-07-10T03:50:25.995Z,17.57
2023-07-10T03:52:52.854Z,17.67
2023-07-10T03:55:21.048Z,17.66
2023-07-10T03:57:47.904Z,17.70
2023-07-10T04:00:15.528Z,17.76
2023-07-10T04:02:42.345Z,17.83
2023-07-10T04:05:09.674Z,17.80
2023-07-10T04:07:36.780Z,17.81
2023-07-10T04:10:04.614Z,17.82
2023-07-10T04:12:32.983Z,17.76
2023-07-10T04:14:59.945Z,17.75
2023-07-10T04:17:26.770Z,17.74
2023-07-10T04:19:54.003Z,17.71
2023-07-10T04:22:20.790Z,17.67
2023-07-10T04:24:47.664Z,17.74
2023-07-10T04:27:14.462Z,17.76
2023-07-10T04:29:42.696Z,17.77
2023-07-10T04:32:10.444Z,17.80
2023-07-10T04:34:37.297Z,17.84
2023-07-10T04:37:04.490Z,17.84
2023-07-10T04:39:31.370Z,17.89
2023-07-10T04:41:58.201Z,17.92
2023-07-10T04:44:25.279Z,17.88
2023-07-10T04:46:53.639Z,17.98
2023-07-10T04:49:21.467Z,18.13
2023-07-10T04:51:48.530Z,18.25
2023-07-10T04:54:15.429Z,18.35
2023-07-10T04:56:42.421Z,18.49
2023-07-10T04:59:09.548Z,18.59
2023-07-10T05:01:36.574Z,18.65
2023-07-10T05:04:05.240Z,18.70
2023-07-10T05:06:32.147Z,18.89
2023-07-10T05:09:00.343Z,19.05
2023-07-10T05:11:28.959Z,19.33
2023-07-10T05:13:57.170Z,19.74
2023-07-10T05:16:24.892Z,20.02
2023-07-10T05:18:51.945Z,20.20
2023-07-10T05:21:20.461Z,20.20
2023-07-10T05:23:47.369Z,20.19
2023-07-10T05:26:16.598Z,20.25
2023-07-10T05:28:43.684Z,20.29
2023-07-10T05:31:11.941Z,20.45
2023-07-10T05:33:40.144Z,20.48
2023-07-10T05:36:09.132Z,20.66
2023-07-10T05:38:38.597Z,20.72
2023-07-10T05:41:05.897Z,20.79
2023-07-10T05:43:33.912Z,21.03
2023-07-10T05:46:01.427Z,22.53
2023-07-10T05:48:29.176Z,24.13
2023-07-10T05:50:56.892Z,23.06
2023-07-10T05:53:23.983Z,23.99
2023-07-10T05:55:54.306Z,25.51
2023-07-10T05:58:24.426Z,26.35
2023-07-10T06:00:54.179Z,27.00
2023-07-10T06:03:21.529Z,27.32
2023-07-10T06:05:55.901Z,28.00
2023-07-10T06:08:23.103Z,27.80
2023-07-10T06:10:49.960Z,27.33
2023-07-10T06:13:18.298Z,28.58
2023-07-10T06:15:47.094Z,29.04
2023-07-10T06:18:14.605Z,28.00
2023-07-10T06:20:41.637Z,27.20
2023-07-10T06:23:08.580Z,26.03
2023-07-10T06:25:35.940Z,27.22
2023-07-10T06:28:02.766Z,27.15
2023-07-10T06:30:30.987Z,28.21
2023-07-10T06:32:57.983Z,28.74
2023-07-10T06:35:25.030Z,29.42
2023-07-10T06:37:51.820Z,29.38
2023-07-10T06:40:18.808Z,29.42
2023-07-10T06:42:45.677Z,29.53
2023-07-10T06:45:13.490Z,29.47
2023-07-10T06:47:43.370Z,30.09
2023-07-10T06:50:12.708Z,30.59
2023-07-10T06:52:41.588Z,30.63
2023-07-10T06:55:12.369Z,30.71
2023-07-10T06:57:39.309Z,31.02
2023-07-10T07:00:10.083Z,31.08
2023-07-10T07:02:37.344Z,31.23
2023-07-10T07:05:07.091Z,31.46
2023-07-10T07:07:34.215Z,31.39
2023-07-10T07:10:01.110Z,31.90
2023-07-10T07:12:27.977Z,31.56
2023-07-10T07:14:55.118Z,31.95
2023-07-10T07:17:21.957Z,31.72
2023-07-10T07:19:48.803Z,31.79
2023-07-10T07:22:17.447Z,31.81
2023-07-10T07:24:44.428Z,32.07
2023-07-10T07:27:11.304Z,32.18
2023-07-10T07:29:38.547Z,32.06
2023-07-10T07:32:06.449Z,32.57
2023-07-10T07:34:33.297Z,32.39
2023-07-10T07:37:00.196Z,32.02
2023-07-10T07:39:32.908Z,32.04
2023-07-10T07:41:59.624Z,32.02
2023-07-10T07:44:27.064Z,32.15
2023-07-10T07:46:53.944Z,32.19
2023-07-10T07:49:25.057Z,31.70
2023-07-10T07:51:52.548Z,31.55
2023-07-10T07:54:19.818Z,31.55
2023-07-10T07:56:48.213Z,31.73
2023-07-10T07:59:15.141Z,32.02
2023-07-10T08:01:42.148Z,32.17
2023-07-10T08:04:09.396Z,32.50
2023-07-10T08:06:36.466Z,32.24
2023-07-10T08:09:04.153Z,31.76
2023-07-10T08:11:31.027Z,30.99
2023-07-10T08:13:59.310Z,30.68
2023-07-10T08:16:26.521Z,30.32
2023-07-10T08:18:53.376Z,31.50
2023-07-10T08:21:21.008Z,31.65
2023-07-10T08:23:47.937Z,32.42
2023-07-10T08:26:15.221Z,31.74
2023-07-10T08:28:42.194Z,32.11
2023-07-10T08:31:10.574Z,32.02
2023-07-10T08:33:37.705Z,31.77
2023-07-10T08:36:07.214Z,31.68
2023-07-10T08:38:35.760Z,31.89
2023-07-10T08:41:05.570Z,31.49
2023-07-10T08:43:38.924Z,32.15
2023-07-10T08:46:09.381Z,32.50
2023-07-10T08:48:40.946Z,32.70
2023-07-10T08:51:28.784Z,32.48
2023-07-10T08:54:01.723Z,32.94
2023-07-10T08:56:34.271Z,33.26
2023-07-10T08:59:11.364Z,32.11
2023-07-10T09:01:42.362Z,32.65
2023-07-10T09:04:14.982Z,32.74
2023-07-10T09:06:47.081Z,31.16
2023-07-10T09:09:35.762Z,30.96
2023-07-10T09:12:06.694Z,32.46
2023-07-10T09:14:40.114Z,33.43
2023-07-10T09:17:20.688Z,32.41
2023-07-10T09:19:55.138Z,31.55
2023-07-10T09:22:22.447Z,32.20
2023-07-10T09:24:49.280Z,32.51
2023-07-10T09:27:16.370Z,32.18
2023-07-10T09:29:48.190Z,32.21
2023-07-10T09:32:17.230Z,32.50
2023-07-10T09:34:47.687Z,32.64
2023-07-10T09:37:18.906Z,31.81
2023-07-10T09:39:45.849Z,31.84
2023-07-10T09:42:16.288Z,30.39
2023-07-10T09:44:48.866Z,31.57
2023-07-10T09:47:16.780Z,30.73
2023-07-10T09:49:47.558Z,30.57
2023-07-10T09:52:22.758Z,30.30
2023-07-10T09:54:50.402Z,29.60
2023-07-10T09:57:19.030Z,29.47
2023-07-10T09:59:51.450Z,29.26
2023-07-10T10:02:22.214Z,28.62
2023-07-10T10:05:06.890Z,28.34
2023-07-10T10:07:39.787Z,29.00
2023-07-10T10:10:22.881Z,29.07
2023-07-10T10:12:55.737Z,28.50
2023-07-10T10:15:31.284Z,28.81
2023-07-10T10:18:03.266Z,29.84
2023-07-10T10:20:34.384Z,30.21
2023-07-10T10:23:02.664Z,30.41
2023-07-10T10:25:37.386Z,30.90
2023-07-10T10:28:23.278Z,30.94
2023-07-10T10:30:56.243Z,30.71
2023-07-10T10:33:31.931Z,30.07
2023-07-10T10:36:04.010Z,30.65
2023-07-10T10:38:42.732Z,30.25
2023-07-10T10:41:32.992Z,29.55
2023-07-10T10:44:07.133Z,30.51
2023-07-10T10:46:54.093Z,29.31
2023-07-10T10:49:42.723Z,29.80
2023-07-10T10:52:19.894Z,30.54
2023-07-10T10:54:56.222Z,30.44
2023-07-10T10:57:36.994Z,31.19
2023-07-10T11:00:19.861Z,31.59
2023-07-10T11:03:05.197Z,31.11
2023-07-10T11:05:37.797Z,31.02
2023-07-10T11:08:13.154Z,31.70
2023-07-10T11:10:43.127Z,30.95
2023-07-10T11:13:20.873Z,30.55
2023-07-10T11:15:47.863Z,30.66
2023-07-10T11:18:16.594Z,30.14
2023-07-10T11:20:43.977Z,30.62
2023-07-10T11:23:43.190Z,31.54
2023-07-10T11:26:17.926Z,32.25
2023-07-10T11:31:37.647Z,32.00
2023-07-10T11:34:39.096Z,31.04
2023-07-10T11:37:27.899Z,31.33
2023-07-10T11:39:56.550Z,31.40
2023-07-10T11:42:25.445Z,32.18
2023-07-10T11:45:01.225Z,32.55
2023-07-10T11:47:30.707Z,32.43
2023-07-10T11:50:17.220Z,31.81
2023-07-10T11:52:44.362Z,31.55
2023-07-10T11:55:24.338Z,31.99
2023-07-10T11:58:23.959Z,31.01
2023-07-10T12:00:51.804Z,31.59
2023-07-10T12:03:18.941Z,31.35
2023-07-10T12:05:49.784Z,31.28
2023-07-10T12:08:17.553Z,31.80
2023-07-10T12:10:47.549Z,31.78
2023-07-10T12:13:21.093Z,31.27
2023-07-10T12:15:51.052Z,31.06
2023-07-10T12:18:22.647Z,31.41
2023-07-10T12:20:51.533Z,31.83
2023-07-10T12:23:18.584Z,31.97
2023-07-10T12:25:50.285Z,32.24
2023-07-10T12:28:27.070Z,31.84
2023-07-10T12:30:59.339Z,32.04
2023-07-10T12:33:33.491Z,31.86
2023-07-10T12:36:07.328Z,31.97
2023-07-10T12:38:36.040Z,32.35
2023-07-10T12:41:03.915Z,32.12
2023-07-10T12:43:30.765Z,32.12
2023-07-10T12:46:01.504Z,32.48
2023-07-10T12:48:33.241Z,32.95
2023-07-10T12:51:03.936Z,32.71
2023-07-10T12:53:33.547Z,32.54
2023-07-10T12:56:09.924Z,32.70
2023-07-10T12:58:37.960Z,33.12
2023-07-10T13:01:20.723Z,32.42
2023-07-10T13:04:00.762Z,32.48
2023-07-10T13:06:27.682Z,32.70
2023-07-10T13:08:57.765Z,32.42
2023-07-10T13:11:40.569Z,32.16
2023-07-10T13:14:15.300Z,32.06
2023-07-10T13:16:45.941Z,32.53
2023-07-10T13:19:12.977Z,32.62
2023-07-10T13:21:39.819Z,32.91
2023-07-10T13:24:07.621Z,33.13
2023-07-10T13:26:34.790Z,33.30
2023-07-10T13:29:01.596Z,33.01
2023-07-10T13:31:32.247Z,32.19
2023-07-10T13:34:00.502Z,32.66
2023-07-10T13:36:28.186Z,32.70
2023-07-10T13:38:55.281Z,32.61
2023-07-10T13:41:24.229Z,32.38
2023-07-10T13:43:51.863Z,32.87
2023-07-10T13:46:21.573Z,33.27
2023-07-10T13:48:50.507Z,33.07
2023-07-10T13:51:20.337Z,32.39
2023-07-10T13:53:47.891Z,31.70
2023-07-10T13:56:17.940Z,31.52
2023-07-10T13:58:45.775Z,31.73
2023-07-10T14:01:13.991Z,31.61
2023-07-10T14:03:42.503Z,31.66
2023-07-10T14:06:37.539Z,31.77
2023-07-10T14:09:07.273Z,31.54
2023-07-10T14:11:34.695Z,30.87
2023-07-10T14:14:02.386Z,31.40
2023-07-10T14:16:31.757Z,30.87
2023-07-10T14:18:59.661Z,30.60
2023-07-10T14:21:28.041Z,30.42
2023-07-10T14:23:55.110Z,30.16
2023-07-10T14:26:24.705Z,30.11
2023-07-10T14:28:53.102Z,30.77
2023-07-10T14:31:20.525Z,30.02
2023-07-10T14:33:47.440Z,30.50
2023-07-10T14:36:16.692Z,30.78
2023-07-10T14:38:45.669Z,31.18
2023-07-10T14:41:14.208Z,31.11
2023-07-10T14:43:42.946Z,30.97
2023-07-10T14:46:15.959Z,30.97
2023-07-10T14:48:43.622Z,30.88
2023-07-10T14:51:11.363Z,30.51
2023-07-10T14:53:38.617Z,30.63
2023-07-10T14:56:13.594Z,31.00
2023-07-10T14:58:41.256Z,31.13
2023-07-10T15:01:15.409Z,31.40
2023-07-10T15:03:42.445Z,30.81
2023-07-10T15:06:21.599Z,30.13
2023-07-10T15:08:51.022Z,30.46
2023-07-10T15:11:20.078Z,30.53
2023-07-10T15:13:47.089Z,30.49
2023-07-10T15:16:17.187Z,30.46
2023-07-10T15:18:44.146Z,29.88
2023-07-10T15:21:14.748Z,29.32
2023-07-10T15:23:41.731Z,29.68
2023-07-10T15:26:08.742Z,30.27
2023-07-10T15:28:37.533Z,29.82
2023-07-10T15:31:06.735Z,30.03
2023-07-10T15:33:36.385Z,29.61
2023-07-10T15:36:04.431Z,29.80
2023-07-10T15:38:32.556Z,30.04
2023-07-10T15:41:01.908Z,29.57
2023-07-10T15:43:31.439Z,29.46
2023-07-10T15:46:01.637Z,29.54
2023-07-10T15:48:29.144Z,29.09
2023-07-10T15:50:57.942Z,29.45
2023-07-10T15:53:28.393Z,29.55
2023-07-10T15:55:55.521Z,29.39
2023-07-10T15:58:23.870Z,29.37
2023-07-10T16:00:53.067Z,29.53
2023-07-10T16:03:27.252Z,29.45
2023-07-10T16:05:56.473Z,29.84
2023-07-10T16:08:25.849Z,29.87
2023-07-10T16:10:59.725Z,29.49
2023-07-10T16:13:28.324Z,29.38
2023-07-10T16:15:55.176Z,29.20
2023-07-10T16:18:28.241Z,29.36
2023-07-10T16:20:57.168Z,29.26
2023-07-10T16:23:29.007Z,28.77
2023-07-10T16:25:55.999Z,29.15
2023-07-10T16:28:25.170Z,28.97
2023-07-10T16:30:52.911Z,28.97
2023-07-10T16:33:22.089Z,28.72
2023-07-10T16:35:51.446Z,28.64
2023-07-10T16:38:19.958Z,28.82
2023-07-10T16:40:49.890Z,28.67
2023-07-10T16:43:19.454Z,29.06
2023-07-10T16:45:53.608Z,28.94
2023-07-10T16:48:23.067Z,28.70
2023-07-10T16:50:53.512Z,28.96
2023-07-10T16:53:26.972Z,29.02
2023-07-10T16:55:54.981Z,28.58
2023-07-10T16:58:23.501Z,28.50
2023-07-10T17:00:50.888Z,28.64
2023-07-10T17:03:21.301Z,28.53
2023-07-10T17:05:48.307Z,28.14
2023-07-10T17:08:19.762Z,28.23
2023-07-10T17:10:47.633Z,28.26
2023-07-10T17:13:16.897Z,27.82
2023-07-10T17:15:44.276Z,27.90
2023-07-10T17:18:16.646Z,27.98
2023-07-10T17:20:44.539Z,27.75
2023-07-10T17:23:19.121Z,27.51
2023-07-10T17:25:47.005Z,27.80
2023-07-10T17:28:15.580Z,27.83
2023-07-10T17:30:42.942Z,27.70
2023-07-10T17:33:37.190Z,27.64
2023-07-10T17:36:04.928Z,27.61
2023-07-10T17:38:34.818Z,27.99
2023-07-10T17:41:02.154Z,27.60
2023-07-10T17:43:32.210Z,27.84
2023-07-10T17:46:00.268Z,27.41
2023-07-10T17:48:27.715Z,27.69
2023-07-10T17:50:56.513Z,27.36
2023-07-10T17:53:24.694Z,27.33
2023-07-10T17:55:58.965Z,27.53
2023-07-10T17:58:28.016Z,27.62
2023-07-10T18:00:55.275Z,27.33
2023-07-10T18:03:26.480Z,27.05
2023-07-10T18:05:53.605Z,27.16
2023-07-10T18:08:23.082Z,26.80
2023-07-10T18:10:56.464Z,26.86
2023-07-10T18:13:29.275Z,26.77
2023-07-10T18:15:56.172Z,26.84
2023-07-10T18:18:23.637Z,26.80
2023-07-10T18:20:50.483Z,26.79
2023-07-10T18:23:22.901Z,26.85
2023-07-10T18:25:53.044Z,26.80
2023-07-10T18:28:26.980Z,26.47
2023-07-10T18:30:55.484Z,26.32
2023-07-10T18:33:24.633Z,25.89
2023-07-10T18:35:53.673Z,26.03
2023-07-10T18:38:22.860Z,25.95
2023-07-10T18:40:53.293Z,25.95
2023-07-10T18:43:25.338Z,26.11
2023-07-10T18:45:53.838Z,25.92
2023-07-10T18:48:30.004Z,25.60
2023-07-10T18:51:01.580Z,25.59
2023-07-10T18:53:30.940Z,25.55
2023-07-10T18:55:57.886Z,25.51
2023-07-10T18:58:28.030Z,25.43
2023-07-10T19:00:56.740Z,25.28
2023-07-10T19:03:24.415Z,25.10
2023-07-10T19:05:52.873Z,25.01
2023-07-10T19:08:22.474Z,24.89
2023-07-10T19:10:49.427Z,24.85
2023-07-10T19:13:18.712Z,24.79
2023-07-10T19:15:50.312Z,24.69
2023-07-10T19:18:20.558Z,24.70
2023-07-10T19:20:47.978Z,24.52
2023-07-10T19:23:20.970Z,24.48
2023-07-10T19:25:49.075Z,24.45
2023-07-10T19:28:17.444Z,24.32
2023-07-10T19:30:51.500Z,24.37
2023-07-10T19:33:24.201Z,24.35
2023-07-10T19:35:52.490Z,24.17
2023-07-10T19:38:22.038Z,24.10
2023-07-10T19:40:49.947Z,23.99
2023-07-10T19:43:16.843Z,23.86
2023-07-10T19:45:44.541Z,23.86
2023-07-10T19:48:16.232Z,23.58
2023-07-10T19:50:43.782Z,23.52
2023-07-10T19:53:15.287Z,23.48
2023-07-10T19:55:42.365Z,23.44
2023-07-10T19:58:13.406Z,23.37
2023-07-10T20:00:40.889Z,23.23
2023-07-10T20:03:15.470Z,23.21
2023-07-10T20:05:42.926Z,23.12
2023-07-10T20:08:13.156Z,22.78
2023-07-10T20:10:39.961Z,22.83
2023-07-10T20:13:13.079Z,22.71
2023-07-10T20:15:41.096Z,22.71
2023-07-10T20:18:19.389Z,22.59
2023-07-10T20:20:46.980Z,22.48
2023-07-10T20:23:16.021Z,22.39
2023-07-10T20:25:43.599Z,22.37
2023-07-10T20:28:16.730Z,22.34
2023-07-10T20:30:43.809Z,22.28
2023-07-10T20:33:14.962Z,22.25
2023-07-10T20:35:44.245Z,22.19
2023-07-10T20:38:15.781Z,22.01
2023-07-10T20:40:42.721Z,21.99
2023-07-10T20:43:16.506Z,21.94
2023-07-10T20:45:45.118Z,21.94
2023-07-10T20:48:21.431Z,21.80
2023-07-10T20:50:51.333Z,21.83
2023-07-10T20:53:19.581Z,21.76
2023-07-10T20:55:49.225Z,21.74
2023-07-10T20:58:18.840Z,21.76
2023-07-10T21:00:46.331Z,21.78
2023-07-10T21:03:15.974Z,21.96
2023-07-10T21:05:44.078Z,22.13
2023-07-10T21:08:19.835Z,22.19
2023-07-10T21:10:47.061Z,22.26
2023-07-10T21:13:14.724Z,21.99
2023-07-10T21:15:41.859Z,21.88
2023-07-10T21:18:13.257Z,21.86
2023-07-10T21:20:40.511Z,21.83
2023-07-10T21:23:25.257Z,21.67
2023-07-10T21:25:52.283Z,21.54
2023-07-10T21:28:20.727Z,21.54
2023-07-10T21:30:47.781Z,21.42
2023-07-10T21:33:18.177Z,21.36
2023-07-10T21:35:45.288Z,21.26
2023-07-10T21:38:12.113Z,21.25
2023-07-10T21:40:42.970Z,21.13
2023-07-10T21:43:16.002Z,21.15
2023-07-10T21:45:42.879Z,21.11
2023-07-10T21:48:15.760Z,20.98
2023-07-10T21:50:42.704Z,20.90
2023-07-10T21:53:09.539Z,20.92
2023-07-10T21:55:36.502Z,20.86
2023-07-10T21:58:05.465Z,20.85
2023-07-10T22:00:32.306Z,20.76
2023-07-10T22:02:59.187Z,20.68
2023-07-10T22:05:26.236Z,20.63
2023-07-10T22:07:53.199Z,20.57
2023-07-10T22:10:20.024Z,20.55
2023-07-10T22:12:46.854Z,20.43
2023-07-10T22:15:20.685Z,20.40
2023-07-10T22:17:47.755Z,20.40
2023-07-10T22:20:19.280Z,20.41
2023-07-10T22:22:46.765Z,20.48
2023-07-10T22:25:15.326Z,20.40
2023-07-10T22:27:42.163Z,20.27
2023-07-10T22:30:09.732Z,20.26
2023-07-10T22:32:38.119Z,20.18
2023-07-10T22:35:05.711Z,20.13
2023-07-10T22:37:32.551Z,20.11
2023-07-10T22:39:59.397Z,20.08
2023-07-10T22:42:26.412Z,20.00
2023-07-10T22:44:53.260Z,19.94
2023-07-10T22:47:20.165Z,19.90
2023-07-10T22:49:48.334Z,19.81
2023-07-10T22:52:16.000Z,19.72
2023-07-10T22:54:42.807Z,19.73
2023-07-10T22:57:10.549Z,19.71
2023-07-10T22:59:37.388Z,19.73
2023-07-10T23:02:04.544Z,19.75
2023-07-10T23:04:31.396Z,19.75
2023-07-10T23:07:02.400Z,19.71
2023-07-10T23:09:29.297Z,19.67
2023-07-10T23:11:56.176Z,19.70
2023-07-10T23:14:23.045Z,19.57
2023-07-10T23:16:49.876Z,19.59
2023-07-10T23:19:16.834Z,19.55
2023-07-10T23:21:43.668Z,19.61
2023-07-10T23:24:12.823Z,19.64
2023-07-10T23:26:39.654Z,19.64
2023-07-10T23:29:06.544Z,19.62
2023-07-10T23:31:34.543Z,19.57
2023-07-10T23:34:01.403Z,19.51
2023-07-10T23:36:29.340Z,19.45
2023-07-10T23:38:57.012Z,19.55
2023-07-10T23:41:25.346Z,19.61
2023-07-10T23:43:52.174Z,19.72
2023-07-10T23:46:18.956Z,19.77
2023-07-10T23:48:46.142Z,19.70
2023-07-10T23:51:13.035Z,19.71
2023-07-10T23:53:40.338Z,19.75
2023-07-10T23:56:08.845Z,19.62
2023-07-10T23:58:37.472Z,19.62
